Time,TemperatureF,DewpointF,PressureIn,WindDirection,WindDirectionDegrees,WindSpeedMPH,WindSpeedGustMPH,Humidity,HourlyPrecipIn,Conditions,Clouds,dailyrainin,SoftwareType,DateUTC
2013-07-25 00:01:00,71.6,68.2,29.84,ESE,121,1.0,2.0,89,0.00,,---,0.00,VWS V14.01,2013-07-25 04:01:00,
2013-07-25 00:06:00,71.5,68.1,29.84,ESE,111,1.0,1.0,89,0.00,,---,0.00,VWS V14.01,2013-07-25 04:06:00,
2013-07-25 00:11:00,71.4,68.0,29.83,East,86,1.0,5.0,89,0.00,,---,0.00,VWS V14.01,2013-07-25 04:11:00,
2013-07-25 00:16:00,71.3,67.9,29.84,East,79,2.0,5.0,89,0.00,,---,0.00,VWS V14.01,2013-07-25 04:16:00,
2013-07-25 00:21:00,71.2,67.5,29.84,East,79,4.0,7.0,88,0.01,,---,0.01,VWS V14.01,2013-07-25 04:21:00,
2013-07-25 00:26:00,71.0,67.6,29.84,East,88,0.0,7.0,89,0.07,,---,0.07,VWS V14.01,2013-07-25 04:26:00,
2013-07-25 00:31:00,70.6,67.5,29.84,East,96,0.0,7.0,90,0.13,,---,0.13,VWS V14.01,2013-07-25 04:31:00,
2013-07-25 00:36:00,70.2,67.4,29.85,North,356,0.0,2.0,91,0.17,,---,0.17,VWS V14.01,2013-07-25 04:36:00,
2013-07-25 00:42:00,69.8,67.4,29.85,WNW,296,0.0,2.0,92,0.19,,---,0.19,VWS V14.01,2013-07-25 04:42:00,
2013-07-25 00:47:00,69.5,67.1,29.85,NE,50,0.0,2.0,92,0.21,,---,0.21,VWS V14.01,2013-07-25 04:47:00,
2013-07-25 00:52:00,69.4,67.3,29.85,ENE,73,0.0,2.0,93,0.21,,---,0.21,VWS V14.01,2013-07-25 04:52:00,
2013-07-25 00:57:00,69.2,67.1,29.85,ENE,73,0.0,2.0,93,0.22,,---,0.22,VWS V14.01,2013-07-25 04:57:00,
2013-07-25 01:02:00,69.0,66.9,29.85,ENE,69,0.0,2.0,93,0.23,,---,0.23,VWS V14.01,2013-07-25 05:02:00,
2013-07-25 01:07:00,68.8,67.0,29.85,ENE,63,0.0,0.0,94,0.23,,---,0.23,VWS V14.01,2013-07-25 05:07:00,
2013-07-25 01:12:00,68.7,66.9,29.85,ENE,63,0.0,0.0,94,0.23,,---,0.23,VWS V14.01,2013-07-25 05:12:00,
2013-07-25 01:17:00,68.7,67.2,29.84,ESE,105,0.0,0.0,95,0.23,,---,0.23,VWS V14.01,2013-07-25 05:17:00,
2013-07-25 01:22:00,68.7,67.2,29.84,East,99,0.0,0.0,95,0.23,,---,0.23,VWS V14.01,2013-07-25 05:22:00,
2013-07-25 01:27:00,68.5,66.7,29.84,NE,47,0.0,0.0,94,0.23,,---,0.23,VWS V14.01,2013-07-25 05:27:00,
2013-07-25 01:32:00,68.4,66.9,29.84,NE,47,0.0,0.0,95,0.23,,---,0.23,VWS V14.01,2013-07-25 05:32:00,
2013-07-25 01:37:00,68.3,66.8,29.83,ENE,59,1.0,4.0,95,0.09,,---,0.23,VWS V14.01,2013-07-25 05:37:00,
2013-07-25 01:42:00,68.1,66.3,29.83,East,90,0.0,4.0,94,0.09,,---,0.23,VWS V14.01,2013-07-25 05:42:00,
2013-07-25 01:47:00,68.1,66.6,29.83,East,90,0.0,4.0,95,0.09,,---,0.23,VWS V14.01,2013-07-25 05:47:00,
2013-07-25 01:52:00,67.9,66.1,29.83,NE,36,0.0,4.0,94,0.09,,---,0.23,VWS V14.01,2013-07-25 05:52:00,
2013-07-25 01:57:00,67.7,65.9,29.83,NE,36,0.0,4.0,94,0.09,,---,0.23,VWS V14.01,2013-07-25 05:57:00,
2013-07-25 02:02:00,67.6,66.1,29.83,NE,36,0.0,4.0,95,0.09,,---,0.23,VWS V14.01,2013-07-25 06:02:00,
2013-07-25 02:07:00,67.6,66.1,29.83,NE,36,0.0,0.0,95,0.00,,---,0.23,VWS V14.01,2013-07-25 06:07:00,
2013-07-25 02:12:00,67.7,66.2,29.83,West,275,0.0,2.0,95,0.00,,---,0.23,VWS V14.01,2013-07-25 06:12:00,
2013-07-25 02:17:00,67.8,66.3,29.84,West,275,0.0,2.0,95,0.00,,---,0.23,VWS V14.01,2013-07-25 06:17:00,
2013-07-25 02:22:00,67.8,66.6,29.83,WSW,258,0.0,2.0,96,0.00,,---,0.23,VWS V14.01,2013-07-25 06:22:00,
2013-07-25 02:27:00,67.9,66.7,29.83,WSW,258,0.0,2.0,96,0.00,,---,0.23,VWS V14.01,2013-07-25 06:27:00,
2013-07-25 02:32:00,68.0,66.8,29.83,WSW,258,0.0,2.0,96,0.00,,---,0.23,VWS V14.01,2013-07-25 06:32:00,
2013-07-25 02:37:00,67.9,66.7,29.83,WSW,258,0.0,0.0,96,0.00,,---,0.23,VWS V14.01,2013-07-25 06:37:00,
2013-07-25 02:42:00,68.0,66.8,29.84,WSW,258,0.0,0.0,96,0.00,,---,0.23,VWS V14.01,2013-07-25 06:42:00,
2013-07-25 02:47:00,68.0,66.8,29.84,WSW,258,0.0,0.0,96,0.00,,---,0.23,VWS V14.01,2013-07-25 06:47:00,
2013-07-25 02:52:00,67.9,66.7,29.84,WSW,258,0.0,0.0,96,0.00,,---,0.23,VWS V14.01,2013-07-25 06:52:00,
2013-07-25 02:57:00,67.9,66.7,29.84,West,266,0.0,1.0,96,0.00,,---,0.23,VWS V14.01,2013-07-25 06:57:00,
2013-07-25 03:02:00,67.8,66.6,29.84,WNW,285,0.0,1.0,96,0.00,,---,0.23,VWS V14.01,2013-07-25 07:02:00,
2013-07-25 03:07:00,67.7,66.5,29.83,WNW,291,0.0,2.0,96,0.00,,---,0.23,VWS V14.01,2013-07-25 07:07:00,
2013-07-25 03:12:00,67.6,66.4,29.83,WNW,291,0.0,2.0,96,0.00,,---,0.23,VWS V14.01,2013-07-25 07:12:00,
2013-07-25 03:17:00,67.6,66.4,29.83,WNW,291,0.0,2.0,96,0.00,,---,0.23,VWS V14.01,2013-07-25 07:17:00,
2013-07-25 03:22:00,67.5,66.3,29.84,WNW,291,0.0,2.0,96,0.00,,---,0.23,VWS V14.01,2013-07-25 07:22:00,
2013-07-25 03:27:00,67.4,66.2,29.83,WNW,291,0.0,2.0,96,0.00,,---,0.23,VWS V14.01,2013-07-25 07:27:00,
2013-07-25 03:32:00,67.4,66.2,29.83,WNW,291,0.0,2.0,96,0.00,,---,0.23,VWS V14.01,2013-07-25 07:32:00,
2013-07-25 03:37:00,67.4,66.2,29.83,WNW,291,0.0,0.0,96,0.00,,---,0.23,VWS V14.01,2013-07-25 07:37:00,
2013-07-25 03:42:00,67.4,66.2,29.83,WNW,291,0.0,0.0,96,0.00,,---,0.23,VWS V14.01,2013-07-25 07:42:00,
2013-07-25 03:47:00,67.4,66.2,29.83,WNW,291,0.0,0.0,96,0.00,,---,0.23,VWS V14.01,2013-07-25 07:47:00,
2013-07-25 03:52:00,67.4,66.2,29.83,WSW,258,0.0,1.0,96,0.00,,---,0.23,VWS V14.01,2013-07-25 07:52:00,
2013-07-25 03:57:00,67.4,66.2,29.83,WSW,258,0.0,1.0,96,0.00,,---,0.23,VWS V14.01,2013-07-25 07:57:00,
2013-07-25 04:02:00,67.4,66.2,29.83,WSW,258,0.0,1.0,96,0.00,,---,0.23,VWS V14.01,2013-07-25 08:02:00,
2013-07-25 04:07:00,67.4,66.2,29.84,WSW,258,0.0,0.0,96,0.00,,---,0.23,VWS V14.01,2013-07-25 08:07:00,
2013-07-25 04:12:00,67.4,66.2,29.84,West,269,0.0,0.0,96,0.00,,---,0.23,VWS V14.01,2013-07-25 08:12:00,
2013-07-25 04:17:00,67.4,66.2,29.84,West,273,0.0,0.0,96,0.00,,---,0.23,VWS V14.01,2013-07-25 08:17:00,
2013-07-25 04:22:00,67.4,66.2,29.84,West,273,0.0,0.0,96,0.00,,---,0.23,VWS V14.01,2013-07-25 08:22:00,
2013-07-25 04:27:00,67.3,66.1,29.84,West,273,0.0,0.0,96,0.00,,---,0.23,VWS V14.01,2013-07-25 08:27:00,
2013-07-25 04:32:00,67.3,66.1,29.85,West,273,0.0,0.0,96,0.00,,---,0.23,VWS V14.01,2013-07-25 08:32:00,
2013-07-25 04:37:00,67.3,66.1,29.85,West,273,0.0,0.0,96,0.00,,---,0.23,VWS V14.01,2013-07-25 08:37:00,
2013-07-25 04:42:00,67.3,66.1,29.85,West,273,0.0,0.0,96,0.00,,---,0.23,VWS V14.01,2013-07-25 08:42:00,
2013-07-25 04:47:00,67.2,66.0,29.85,West,273,0.0,0.0,96,0.00,,---,0.23,VWS V14.01,2013-07-25 08:47:00,
2013-07-25 04:52:00,67.2,66.0,29.86,WSW,255,0.0,1.0,96,0.00,,---,0.23,VWS V14.01,2013-07-25 08:52:00,
2013-07-25 04:57:00,67.2,66.0,29.86,South,180,3.0,4.0,96,0.00,,---,0.23,VWS V14.01,2013-07-25 08:57:00,
2013-07-25 05:02:00,67.2,66.0,29.86,South,169,4.0,5.0,96,0.01,,---,0.24,VWS V14.01,2013-07-25 09:02:00,
2013-07-25 05:07:00,67.2,66.0,29.86,WSW,250,0.0,5.0,96,0.01,,---,0.24,VWS V14.01,2013-07-25 09:07:00,
2013-07-25 05:12:00,67.1,65.9,29.85,SSW,211,0.0,5.0,96,0.02,,---,0.25,VWS V14.01,2013-07-25 09:12:00,
2013-07-25 05:17:00,67.1,65.9,29.85,SSW,211,0.0,5.0,96,0.02,,---,0.25,VWS V14.01,2013-07-25 09:17:00,
2013-07-25 05:22:00,67.1,65.9,29.85,SSW,211,0.0,5.0,96,0.02,,---,0.25,VWS V14.01,2013-07-25 09:22:00,
2013-07-25 05:27:00,67.0,65.8,29.85,West,273,0.0,5.0,96,0.02,,---,0.25,VWS V14.01,2013-07-25 09:27:00,
2013-07-25 05:32:00,66.9,65.7,29.85,West,275,0.0,5.0,96,0.02,,---,0.25,VWS V14.01,2013-07-25 09:32:00,
2013-07-25 05:37:00,66.8,65.6,29.85,West,275,0.0,0.0,96,0.02,,---,0.25,VWS V14.01,2013-07-25 09:37:00,
2013-07-25 05:42:00,66.8,65.6,29.85,West,275,0.0,0.0,96,0.02,,---,0.25,VWS V14.01,2013-07-25 09:42:00,
2013-07-25 05:47:00,66.7,65.5,29.85,West,275,0.0,0.0,96,0.02,,---,0.25,VWS V14.01,2013-07-25 09:47:00,
2013-07-25 05:52:00,66.6,65.4,29.85,West,275,0.0,0.0,96,0.02,,---,0.25,VWS V14.01,2013-07-25 09:52:00,
2013-07-25 05:57:00,66.5,65.3,29.85,North,350,0.0,2.0,96,0.02,,---,0.25,VWS V14.01,2013-07-25 09:57:00,
2013-07-25 06:02:00,66.5,65.3,29.85,North,350,0.0,2.0,96,0.02,,---,0.25,VWS V14.01,2013-07-25 10:02:00,
2013-07-25 06:07:00,66.4,65.2,29.85,North,350,0.0,1.0,96,0.01,,---,0.25,VWS V14.01,2013-07-25 10:07:00,
2013-07-25 06:12:00,66.4,65.2,29.84,North,350,0.0,1.0,96,0.01,,---,0.25,VWS V14.01,2013-07-25 10:12:00,
2013-07-25 06:17:00,66.3,65.1,29.85,North,350,0.0,1.0,96,0.01,,---,0.25,VWS V14.01,2013-07-25 10:17:00,
2013-07-25 06:22:00,66.3,65.1,29.85,WNW,298,1.0,3.0,96,0.01,,---,0.25,VWS V14.01,2013-07-25 10:22:00,
2013-07-25 06:27:00,66.2,65.0,29.85,NNW,327,1.0,3.0,96,0.01,,---,0.25,VWS V14.01,2013-07-25 10:27:00,
2013-07-25 06:32:00,66.1,64.9,29.85,NW,308,0.0,3.0,96,0.01,,---,0.25,VWS V14.01,2013-07-25 10:32:00,
2013-07-25 06:37:00,66.0,64.8,29.85,NNW,327,1.0,2.0,96,0.00,,---,0.25,VWS V14.01,2013-07-25 10:37:00,
2013-07-25 06:42:00,65.8,64.6,29.85,NW,304,1.0,2.0,96,0.00,,---,0.25,VWS V14.01,2013-07-25 10:42:00,
2013-07-25 06:47:00,65.7,64.5,29.85,NW,316,1.0,2.0,96,0.00,,---,0.25,VWS V14.01,2013-07-25 10:47:00,
2013-07-25 06:52:00,65.4,64.2,29.86,North,350,0.0,3.0,96,0.00,,---,0.25,VWS V14.01,2013-07-25 10:52:00,
2013-07-25 06:57:00,65.2,64.0,29.86,WNW,289,1.0,3.0,96,0.00,,---,0.25,VWS V14.01,2013-07-25 10:57:00,
2013-07-25 07:02:00,65.1,63.9,29.86,West,279,1.0,3.0,96,0.00,,---,0.25,VWS V14.01,2013-07-25 11:02:00,
2013-07-25 07:07:00,64.8,63.6,29.86,North,354,1.0,2.0,96,0.00,,---,0.25,VWS V14.01,2013-07-25 11:07:00,
2013-07-25 07:12:00,64.6,63.4,29.86,North,350,0.0,2.0,96,0.00,,---,0.25,VWS V14.01,2013-07-25 11:12:00,
2013-07-25 07:17:00,64.5,63.3,29.86,North,354,0.0,2.0,96,0.00,,---,0.25,VWS V14.01,2013-07-25 11:17:00,
2013-07-25 07:22:00,64.5,63.3,29.86,North,354,0.0,2.0,96,0.00,,---,0.25,VWS V14.01,2013-07-25 11:22:00,
2013-07-25 07:27:00,64.3,62.8,29.87,NW,321,1.0,3.0,95,0.00,,---,0.25,VWS V14.01,2013-07-25 11:27:00,
2013-07-25 07:32:00,64.1,62.6,29.87,NW,305,1.0,3.0,95,0.01,,---,0.26,VWS V14.01,2013-07-25 11:32:00,
2013-07-25 07:37:00,64.2,63.0,29.87,NNW,340,0.0,2.0,96,0.01,,---,0.26,VWS V14.01,2013-07-25 11:37:00,
2013-07-25 07:42:00,64.2,62.7,29.87,NW,325,0.0,2.0,95,0.01,,---,0.26,VWS V14.01,2013-07-25 11:42:00,
2013-07-25 07:47:00,64.3,62.8,29.88,NW,323,1.0,2.0,95,0.01,,---,0.26,VWS V14.01,2013-07-25 11:47:00,
2013-07-25 07:52:00,64.4,62.9,29.88,NNW,336,0.0,2.0,95,0.01,,---,0.26,VWS V14.01,2013-07-25 11:52:00,
2013-07-25 07:57:00,64.4,62.6,29.88,NW,324,0.0,3.0,94,0.01,,---,0.26,VWS V14.01,2013-07-25 11:57:00,
2013-07-25 08:02:00,64.5,62.7,29.88,NW,304,2.0,3.0,94,0.01,,---,0.26,VWS V14.01,2013-07-25 12:02:00,
2013-07-25 08:07:00,64.6,63.1,29.89,NW,320,1.0,1.0,95,0.01,,---,0.26,VWS V14.01,2013-07-25 12:07:00,
2013-07-25 08:12:00,64.8,63.3,29.89,NW,320,1.0,1.0,95,0.01,,---,0.26,VWS V14.01,2013-07-25 12:12:00,
2013-07-25 08:17:00,65.0,63.5,29.89,NW,320,0.0,1.0,95,0.01,,---,0.26,VWS V14.01,2013-07-25 12:17:00,
2013-07-25 08:22:00,65.3,63.5,29.89,NW,313,1.0,3.0,94,0.01,,---,0.26,VWS V14.01,2013-07-25 12:22:00,
2013-07-25 08:27:00,65.6,63.5,29.89,WNW,301,1.0,3.0,93,0.01,,---,0.26,VWS V14.01,2013-07-25 12:27:00,
2013-07-25 08:32:00,65.9,63.5,29.89,North,350,1.0,3.0,92,0.01,,---,0.26,VWS V14.01,2013-07-25 12:32:00,
2013-07-25 08:37:00,66.2,63.5,29.89,North,2,0.0,2.0,91,0.00,,---,0.26,VWS V14.01,2013-07-25 12:37:00,
2013-07-25 08:42:00,66.6,63.9,29.89,North,2,0.0,2.0,91,0.00,,---,0.26,VWS V14.01,2013-07-25 12:42:00,
2013-07-25 08:47:00,67.2,64.8,29.89,ENE,59,0.0,2.0,92,0.00,,---,0.26,VWS V14.01,2013-07-25 12:47:00,
2013-07-25 08:52:00,67.7,64.3,29.90,ENE,59,1.0,4.0,89,0.00,,---,0.26,VWS V14.01,2013-07-25 12:52:00,
2013-07-25 08:57:00,68.1,64.7,29.90,NE,38,2.0,4.0,89,0.00,,---,0.26,VWS V14.01,2013-07-25 12:57:00,
2013-07-25 09:02:00,68.5,63.8,29.90,East,79,0.0,4.0,85,0.00,,---,0.26,VWS V14.01,2013-07-25 13:02:00,
2013-07-25 09:07:00,69.0,64.6,29.90,ENE,64,0.0,1.0,86,0.00,,---,0.26,VWS V14.01,2013-07-25 13:07:00,
2013-07-25 09:12:00,69.5,64.5,29.90,North,2,0.0,2.0,84,0.00,,---,0.26,VWS V14.01,2013-07-25 13:12:00,
2013-07-25 09:17:00,69.9,65.5,29.91,NE,46,0.0,3.0,86,0.00,,---,0.26,VWS V14.01,2013-07-25 13:17:00,
2013-07-25 09:22:00,70.2,64.8,29.91,North,358,0.0,3.0,83,0.00,,---,0.26,VWS V14.01,2013-07-25 13:22:00,
2013-07-25 09:27:00,70.4,65.0,29.91,NE,55,0.0,3.0,83,0.00,,---,0.26,VWS V14.01,2013-07-25 13:27:00,
2013-07-25 09:32:00,70.5,63.7,29.91,NE,54,0.0,3.0,79,0.00,,---,0.26,VWS V14.01,2013-07-25 13:32:00,
2013-07-25 09:37:00,70.9,63.3,29.91,ESE,113,4.0,6.0,77,0.00,,---,0.26,VWS V14.01,2013-07-25 13:37:00,
2013-07-25 09:42:00,71.3,63.7,29.91,East,94,2.0,6.0,77,0.00,,---,0.26,VWS V14.01,2013-07-25 13:42:00,
2013-07-25 09:47:00,71.8,63.5,29.91,ESE,111,1.0,6.0,75,0.00,,---,0.26,VWS V14.01,2013-07-25 13:47:00,
2013-07-25 09:52:00,71.9,63.2,29.91,ESE,103,0.0,6.0,74,0.00,,---,0.26,VWS V14.01,2013-07-25 13:52:00,
2013-07-25 09:57:00,72.1,62.2,29.91,ENE,75,1.0,6.0,71,0.00,,---,0.26,VWS V14.01,2013-07-25 13:57:00,
2013-07-25 10:02:00,72.2,62.3,29.91,East,94,2.0,6.0,71,0.00,,---,0.26,VWS V14.01,2013-07-25 14:02:00,
2013-07-25 10:07:00,72.1,61.4,29.91,ENE,73,0.0,2.0,69,0.00,,---,0.26,VWS V14.01,2013-07-25 14:07:00,
2013-07-25 10:12:00,72.0,62.1,29.92,ENE,76,2.0,4.0,71,0.00,,---,0.26,VWS V14.01,2013-07-25 14:12:00,
2013-07-25 10:17:00,71.8,61.9,29.92,NE,36,1.0,6.0,71,0.00,,---,0.26,VWS V14.01,2013-07-25 14:17:00,
2013-07-25 10:22:00,71.7,61.8,29.91,SE,130,1.0,6.0,71,0.00,,---,0.26,VWS V14.01,2013-07-25 14:22:00,
2013-07-25 10:27:00,71.9,62.4,29.91,ESE,102,0.0,6.0,72,0.00,,---,0.26,VWS V14.01,2013-07-25 14:27:00,
2013-07-25 10:32:00,72.1,62.6,29.91,East,96,1.0,6.0,72,0.00,,---,0.26,VWS V14.01,2013-07-25 14:32:00,
2013-07-25 10:37:00,72.1,62.2,29.91,ESE,105,1.0,2.0,71,0.00,,---,0.26,VWS V14.01,2013-07-25 14:37:00,
2013-07-25 10:42:00,72.2,63.1,29.91,ESE,106,0.0,5.0,73,0.00,,---,0.26,VWS V14.01,2013-07-25 14:42:00,
2013-07-25 10:47:00,72.4,62.5,29.91,NE,45,2.0,5.0,71,0.00,,---,0.26,VWS V14.01,2013-07-25 14:47:00,
2013-07-25 10:57:00,72.9,64.5,29.91,ESE,121,6.0,6.0,75,0.00,,---,0.26,VWS V14.01,2013-07-25 14:57:00,
2013-07-25 11:02:00,73.2,63.6,29.91,East,98,1.0,6.0,72,0.00,,---,0.26,VWS V14.01,2013-07-25 15:02:00,
2013-07-25 11:07:00,73.5,63.5,29.92,South,177,1.0,2.0,71,0.00,,---,0.26,VWS V14.01,2013-07-25 15:07:00,
2013-07-25 11:12:00,73.7,63.7,29.92,ESE,113,0.0,2.0,71,0.00,,---,0.26,VWS V14.01,2013-07-25 15:12:00,
2013-07-25 11:17:00,74.1,66.4,29.92,ESE,113,0.0,2.0,77,0.00,,---,0.26,VWS V14.01,2013-07-25 15:17:00,
2013-07-25 11:22:00,74.3,64.3,29.92,NE,34,0.0,3.0,71,0.00,,---,0.26,VWS V14.01,2013-07-25 15:22:00,
2013-07-25 11:27:00,74.1,63.3,29.93,East,87,1.0,4.0,69,0.00,,---,0.26,VWS V14.01,2013-07-25 15:27:00,
2013-07-25 11:32:00,73.8,64.6,29.93,North,358,0.0,4.0,73,0.00,,---,0.26,VWS V14.01,2013-07-25 15:32:00,
2013-07-25 11:37:00,73.5,63.5,29.93,NW,320,0.0,2.0,71,0.00,,---,0.26,VWS V14.01,2013-07-25 15:37:00,
2013-07-25 11:45:00,73.3,64.1,29.93,East,83,1.0,3.0,73,0.00,,---,0.26,VWS V14.01,2013-07-25 15:45:00,
2013-07-25 11:50:00,73.2,64.4,29.93,ESE,113,0.0,4.0,74,0.00,,---,0.26,VWS V14.01,2013-07-25 15:50:00,
2013-07-25 11:55:00,73.1,64.7,29.93,NNE,20,1.0,4.0,75,0.00,,---,0.26,VWS V14.01,2013-07-25 15:55:00,
2013-07-25 12:00:00,73.1,63.5,29.93,NNE,21,0.0,4.0,72,0.00,,---,0.26,VWS V14.01,2013-07-25 16:00:00,
2013-07-25 12:05:00,73.3,64.9,29.93,NNE,22,0.0,0.0,75,0.00,,---,0.26,VWS V14.01,2013-07-25 16:05:00,
2013-07-25 12:10:00,73.5,64.3,29.93,NNE,15,0.0,2.0,73,0.00,,---,0.26,VWS V14.01,2013-07-25 16:10:00,
2013-07-25 12:15:00,73.6,65.2,29.93,ESE,104,0.0,2.0,75,0.00,,---,0.26,VWS V14.01,2013-07-25 16:15:00,
2013-07-25 12:20:00,73.7,63.3,29.93,ESE,120,1.0,4.0,70,0.00,,---,0.26,VWS V14.01,2013-07-25 16:20:00,
2013-07-25 12:25:00,73.7,64.1,29.93,South,169,1.0,4.0,72,0.00,,---,0.26,VWS V14.01,2013-07-25 16:25:00,
2013-07-25 12:30:00,74.0,64.4,29.93,ESE,102,0.0,4.0,72,0.00,,---,0.26,VWS V14.01,2013-07-25 16:30:00,
2013-07-25 12:35:00,74.6,65.0,29.92,East,92,1.0,4.0,72,0.00,,---,0.26,VWS V14.01,2013-07-25 16:35:00,
2013-07-25 12:39:00,74.7,64.7,29.92,ENE,68,2.0,6.0,71,0.00,,---,0.26,VWS V14.01,2013-07-25 16:39:00,
2013-07-25 12:44:00,74.7,64.7,29.92,SE,131,0.0,6.0,71,0.00,,---,0.26,VWS V14.01,2013-07-25 16:44:00,
2013-07-25 12:49:00,74.8,65.2,29.92,East,100,0.0,6.0,72,0.00,,---,0.26,VWS V14.01,2013-07-25 16:49:00,
2013-07-25 12:54:00,74.7,64.7,29.93,ESE,111,0.0,6.0,71,0.00,,---,0.26,VWS V14.01,2013-07-25 16:54:00,
2013-07-25 12:59:00,74.5,63.7,29.92,East,99,0.0,6.0,69,0.00,,---,0.26,VWS V14.01,2013-07-25 16:59:00,
2013-07-25 13:04:00,74.8,64.0,29.92,ESE,110,0.0,1.0,69,0.00,,---,0.26,VWS V14.01,2013-07-25 17:04:00,
2013-07-25 13:09:00,75.4,64.9,29.92,ESE,109,1.0,6.0,70,0.00,,---,0.26,VWS V14.01,2013-07-25 17:09:00,
2013-07-25 13:14:00,75.7,63.5,29.92,East,85,0.0,6.0,66,0.00,,---,0.26,VWS V14.01,2013-07-25 17:14:00,
2013-07-25 13:19:00,76.2,66.5,29.92,SSE,165,1.0,6.0,72,0.00,,---,0.26,VWS V14.01,2013-07-25 17:19:00,
2013-07-25 13:24:00,76.6,64.8,29.92,East,100,1.0,6.0,67,0.00,,---,0.26,VWS V14.01,2013-07-25 17:24:00,
2013-07-25 13:29:00,76.9,65.1,29.92,East,98,2.0,6.0,67,0.00,,---,0.26,VWS V14.01,2013-07-25 17:29:00,
2013-07-25 13:34:00,76.7,64.5,29.92,ENE,73,1.0,4.0,66,0.00,,---,0.26,VWS V14.01,2013-07-25 17:34:00,
2013-07-25 13:39:00,76.4,64.2,29.92,ENE,73,0.0,4.0,66,0.00,,---,0.26,VWS V14.01,2013-07-25 17:39:00,
2013-07-25 13:45:00,76.2,64.9,29.92,East,93,0.0,5.0,68,0.00,,---,0.26,VWS V14.01,2013-07-25 17:45:00,
2013-07-25 13:49:00,76.4,64.6,29.92,East,99,0.0,5.0,67,0.00,,---,0.26,VWS V14.01,2013-07-25 17:49:00,
2013-07-25 13:54:00,76.4,65.1,29.92,South,186,1.0,5.0,68,0.00,,---,0.26,VWS V14.01,2013-07-25 17:54:00,
2013-07-25 13:59:00,76.8,65.0,29.92,East,88,0.0,5.0,67,0.00,,---,0.26,VWS V14.01,2013-07-25 17:59:00,
2013-07-25 14:04:00,77.1,64.4,29.92,East,79,1.0,2.0,65,0.00,,---,0.26,VWS V14.01,2013-07-25 18:04:00,
2013-07-25 14:09:00,77.1,64.0,29.92,NNE,31,0.0,5.0,64,0.00,,---,0.26,VWS V14.01,2013-07-25 18:09:00,
2013-07-25 14:14:00,77.4,66.4,29.92,SSE,163,0.0,5.0,69,0.00,,---,0.26,VWS V14.01,2013-07-25 18:14:00,
2013-07-25 14:19:00,77.6,64.9,29.92,SE,128,2.0,5.0,65,0.00,,---,0.26,VWS V14.01,2013-07-25 18:19:00,
2013-07-25 14:25:00,77.1,64.0,29.92,ESE,123,0.0,5.0,64,0.00,,---,0.26,VWS V14.01,2013-07-25 18:25:00,
2013-07-25 14:29:00,76.9,64.7,29.91,SE,140,0.0,5.0,66,0.00,,---,0.26,VWS V14.01,2013-07-25 18:29:00,
2013-07-25 14:34:00,76.9,66.0,29.91,East,98,0.0,1.0,69,0.00,,---,0.26,VWS V14.01,2013-07-25 18:34:00,
2013-07-25 14:39:00,76.9,63.8,29.91,SE,135,0.0,2.0,64,0.00,,---,0.26,VWS V14.01,2013-07-25 18:39:00,
2013-07-25 14:44:00,77.1,64.9,29.91,SSE,166,1.0,3.0,66,0.00,,---,0.26,VWS V14.01,2013-07-25 18:44:00,
2013-07-25 14:49:00,77.6,65.3,29.91,SSE,166,1.0,4.0,66,0.00,,---,0.26,VWS V14.01,2013-07-25 18:49:00,
2013-07-25 14:54:00,77.6,63.6,29.91,ESE,110,1.0,4.0,62,0.00,,---,0.26,VWS V14.01,2013-07-25 18:54:00,
2013-07-25 14:59:00,78.0,65.3,29.91,West,279,1.0,4.0,65,0.00,,---,0.26,VWS V14.01,2013-07-25 18:59:00,
2013-07-25 15:04:00,78.6,65.9,29.91,East,96,0.0,2.0,65,0.00,,---,0.26,VWS V14.01,2013-07-25 19:04:00,
2013-07-25 15:09:00,78.9,64.8,29.90,SE,127,0.0,6.0,62,0.00,,---,0.26,VWS V14.01,2013-07-25 19:09:00,
2013-07-25 15:14:00,78.9,63.8,29.90,SE,128,0.0,6.0,60,0.00,,---,0.26,VWS V14.01,2013-07-25 19:14:00,
2013-07-25 15:19:00,78.7,65.5,29.90,ENE,72,0.0,6.0,64,0.00,,---,0.26,VWS V14.01,2013-07-25 19:19:00,
2013-07-25 15:24:00,78.3,65.6,29.90,East,88,0.0,6.0,65,0.00,,---,0.26,VWS V14.01,2013-07-25 19:24:00,
2013-07-25 15:29:00,78.3,64.7,29.90,SE,127,0.0,6.0,63,0.00,,---,0.26,VWS V14.01,2013-07-25 19:29:00,
2013-07-25 15:34:00,78.7,64.6,29.90,ESE,102,0.0,1.0,62,0.00,,---,0.26,VWS V14.01,2013-07-25 19:34:00,
2013-07-25 15:39:00,79.0,65.8,29.90,NE,52,0.0,4.0,64,0.00,,---,0.26,VWS V14.01,2013-07-25 19:39:00,
2013-07-25 15:44:00,79.1,67.2,29.91,ESE,110,0.0,5.0,67,0.00,,---,0.26,VWS V14.01,2013-07-25 19:44:00,
2013-07-25 15:49:00,79.6,64.0,29.91,SSE,165,0.0,5.0,59,0.00,,---,0.26,VWS V14.01,2013-07-25 19:49:00,
2013-07-25 15:54:00,79.4,64.3,29.91,East,98,0.0,5.0,60,0.00,,---,0.26,VWS V14.01,2013-07-25 19:54:00,
2013-07-25 15:59:00,79.1,65.4,29.91,ESE,117,0.0,5.0,63,0.00,,---,0.26,VWS V14.01,2013-07-25 19:59:00,
2013-07-25 16:04:00,79.1,65.4,29.91,East,101,0.0,1.0,63,0.00,,---,0.26,VWS V14.01,2013-07-25 20:04:00,
2013-07-25 16:09:00,79.0,64.9,29.91,East,86,0.0,2.0,62,0.00,,---,0.26,VWS V14.01,2013-07-25 20:09:00,
2013-07-25 16:14:00,79.1,66.3,29.90,East,96,1.0,4.0,65,0.00,,---,0.26,VWS V14.01,2013-07-25 20:14:00,
2013-07-25 16:19:00,79.0,65.3,29.91,ESE,116,1.0,4.0,63,0.00,,---,0.26,VWS V14.01,2013-07-25 20:19:00,
2013-07-25 16:24:00,78.7,66.4,29.90,SE,135,0.0,4.0,66,0.00,,---,0.26,VWS V14.01,2013-07-25 20:24:00,
2013-07-25 16:29:00,78.4,64.3,29.90,SE,135,0.0,4.0,62,0.00,,---,0.26,VWS V14.01,2013-07-25 20:29:00,
2013-07-25 16:34:00,78.3,64.7,29.90,ESE,119,0.0,1.0,63,0.00,,---,0.26,VWS V14.01,2013-07-25 20:34:00,
2013-07-25 16:39:00,78.3,65.1,29.90,South,185,0.0,2.0,64,0.00,,---,0.26,VWS V14.01,2013-07-25 20:39:00,
2013-07-25 16:44:00,78.5,65.3,29.90,SSE,164,0.0,2.0,64,0.00,,---,0.26,VWS V14.01,2013-07-25 20:44:00,
2013-07-25 16:49:00,78.7,64.6,29.90,ESE,113,0.0,2.0,62,0.00,,---,0.26,VWS V14.01,2013-07-25 20:49:00,
2013-07-25 16:54:00,78.5,64.9,29.90,South,182,0.0,3.0,63,0.00,,---,0.26,VWS V14.01,2013-07-25 20:54:00,
2013-07-25 16:59:00,78.5,64.9,29.90,SE,138,0.0,4.0,63,0.00,,---,0.26,VWS V14.01,2013-07-25 20:59:00,
2013-07-25 17:04:00,78.7,65.5,29.91,SE,133,0.0,4.0,64,0.00,,---,0.26,VWS V14.01,2013-07-25 21:04:00,
2013-07-25 17:09:00,78.7,65.5,29.91,SSE,160,0.0,4.0,64,0.00,,---,0.26,VWS V14.01,2013-07-25 21:09:00,
2013-07-25 17:14:00,78.6,65.4,29.91,ESE,123,0.0,5.0,64,0.00,,---,0.26,VWS V14.01,2013-07-25 21:14:00,
2013-07-25 17:19:00,78.4,65.2,29.91,North,357,0.0,5.0,64,0.00,,---,0.26,VWS V14.01,2013-07-25 21:19:00,
2013-07-25 17:24:00,78.5,66.2,29.91,South,171,0.0,5.0,66,0.00,,---,0.26,VWS V14.01,2013-07-25 21:24:00,
2013-07-25 17:29:00,78.5,65.8,29.91,SE,125,2.0,5.0,65,0.00,,---,0.26,VWS V14.01,2013-07-25 21:29:00,
2013-07-25 17:34:00,78.6,66.7,29.91,SE,124,0.0,0.0,67,0.00,,---,0.26,VWS V14.01,2013-07-25 21:34:00,
2013-07-25 17:39:00,78.7,65.5,29.91,East,97,1.0,2.0,64,0.00,,---,0.26,VWS V14.01,2013-07-25 21:39:00,
2013-07-25 17:44:00,78.6,66.3,29.91,ESE,119,0.0,5.0,66,0.00,,---,0.26,VWS V14.01,2013-07-25 21:44:00,
2013-07-25 17:49:00,78.6,65.9,29.91,ESE,116,0.0,5.0,65,0.00,,---,0.26,VWS V14.01,2013-07-25 21:49:00,
2013-07-25 17:54:00,78.5,65.8,29.91,East,98,0.0,5.0,65,0.00,,---,0.26,VWS V14.01,2013-07-25 21:54:00,
2013-07-25 17:59:00,78.5,64.4,29.91,ESE,106,0.0,5.0,62,0.00,,---,0.26,VWS V14.01,2013-07-25 21:59:00,
2013-07-25 18:04:00,78.4,65.7,29.91,ESE,106,0.0,1.0,65,0.00,,---,0.26,VWS V14.01,2013-07-25 22:04:00,
2013-07-25 18:09:00,78.3,65.6,29.91,East,84,0.0,1.0,65,0.00,,---,0.26,VWS V14.01,2013-07-25 22:09:00,
2013-07-25 18:14:00,78.2,65.5,29.91,East,84,0.0,1.0,65,0.00,,---,0.26,VWS V14.01,2013-07-25 22:14:00,
2013-07-25 18:19:00,78.2,66.4,29.91,East,84,0.0,1.0,67,0.00,,---,0.26,VWS V14.01,2013-07-25 22:19:00,
2013-07-25 18:24:00,78.1,65.4,29.91,East,84,0.0,1.0,65,0.00,,---,0.26,VWS V14.01,2013-07-25 22:24:00,
2013-07-25 18:29:00,77.7,65.4,29.91,ESE,123,0.0,1.0,66,0.00,,---,0.26,VWS V14.01,2013-07-25 22:29:00,
2013-07-25 18:34:00,77.6,65.3,29.91,ESE,104,0.0,0.0,66,0.00,,---,0.26,VWS V14.01,2013-07-25 22:34:00,
2013-07-25 18:39:00,77.5,65.3,29.91,ESE,104,0.0,0.0,66,0.00,,---,0.26,VWS V14.01,2013-07-25 22:39:00,
2013-07-25 18:44:00,77.5,66.1,29.91,ESE,104,0.0,0.0,68,0.00,,---,0.26,VWS V14.01,2013-07-25 22:44:00,
2013-07-25 18:49:00,77.3,65.1,29.91,ESE,104,0.0,0.0,66,0.00,,---,0.26,VWS V14.01,2013-07-25 22:49:00,
2013-07-25 18:54:00,77.2,65.0,29.91,ESE,104,0.0,0.0,66,0.00,,---,0.26,VWS V14.01,2013-07-25 22:54:00,
2013-07-25 18:59:00,77.0,64.8,29.91,South,181,1.0,2.0,66,0.00,,---,0.26,VWS V14.01,2013-07-25 22:59:00,
2013-07-25 19:04:00,76.9,65.5,29.92,South,181,0.0,0.0,68,0.00,,---,0.26,VWS V14.01,2013-07-25 23:04:00,
2013-07-25 19:09:00,76.8,65.4,29.92,South,181,0.0,1.0,68,0.00,,---,0.26,VWS V14.01,2013-07-25 23:09:00,
2013-07-25 19:14:00,76.8,65.4,29.92,South,181,0.0,1.0,68,0.00,,---,0.26,VWS V14.01,2013-07-25 23:14:00,
2013-07-25 19:19:00,76.9,65.5,29.92,South,178,0.0,1.0,68,0.00,,---,0.26,VWS V14.01,2013-07-25 23:19:00,
2013-07-25 19:24:00,76.8,65.9,29.92,South,178,0.0,1.0,69,0.00,,---,0.26,VWS V14.01,2013-07-25 23:24:00,
2013-07-25 19:29:00,76.7,66.2,29.93,South,184,0.0,1.0,70,0.00,,---,0.26,VWS V14.01,2013-07-25 23:29:00,
2013-07-25 19:34:00,76.7,67.4,29.93,South,184,0.0,0.0,73,0.00,,---,0.26,VWS V14.01,2013-07-25 23:34:00,
2013-07-25 19:39:00,76.7,68.9,29.93,South,184,0.0,0.0,77,0.00,,---,0.26,VWS V14.01,2013-07-25 23:39:00,
2013-07-25 19:44:00,76.7,67.8,29.93,South,184,0.0,0.0,74,0.00,,---,0.26,VWS V14.01,2013-07-25 23:44:00,
2013-07-25 19:49:00,76.6,67.7,29.93,South,184,0.0,0.0,74,0.00,,---,0.26,VWS V14.01,2013-07-25 23:49:00,
2013-07-25 19:54:00,76.3,68.2,29.93,South,184,0.0,0.0,76,0.00,,---,0.26,VWS V14.01,2013-07-25 23:54:00,
2013-07-25 19:59:00,76.0,67.9,29.93,South,184,0.0,0.0,76,0.00,,---,0.26,VWS V14.01,2013-07-25 23:59:00,
2013-07-25 20:04:00,75.6,67.5,29.93,South,184,0.0,0.0,76,0.00,,---,0.26,VWS V14.01,2013-07-26 00:04:00,
2013-07-25 20:09:00,75.3,68.3,29.93,South,184,0.0,0.0,79,0.00,,---,0.26,VWS V14.01,2013-07-26 00:09:00,
2013-07-25 20:14:00,74.9,67.9,29.93,South,184,0.0,0.0,79,0.00,,---,0.26,VWS V14.01,2013-07-26 00:14:00,
2013-07-25 20:19:00,74.6,67.7,29.94,South,184,0.0,0.0,79,0.00,,---,0.26,VWS V14.01,2013-07-26 00:19:00,
2013-07-25 20:24:00,74.1,67.9,29.94,South,187,0.0,1.0,81,0.00,,---,0.26,VWS V14.01,2013-07-26 00:24:00,
2013-07-25 20:29:00,73.5,67.7,29.94,SSW,192,0.0,1.0,82,0.00,,---,0.26,VWS V14.01,2013-07-26 00:29:00,
2013-07-25 20:34:00,73.0,67.9,29.94,SSW,192,0.0,0.0,84,0.00,,---,0.26,VWS V14.01,2013-07-26 00:34:00,
2013-07-25 20:39:00,72.5,67.7,29.94,SSW,194,0.0,0.0,85,0.00,,---,0.26,VWS V14.01,2013-07-26 00:39:00,
2013-07-25 20:44:00,72.0,67.2,29.94,SSW,194,0.0,0.0,85,0.00,,---,0.26,VWS V14.01,2013-07-26 00:44:00,
2013-07-25 20:49:00,71.6,67.5,29.94,SSW,194,0.0,0.0,87,0.00,,---,0.26,VWS V14.01,2013-07-26 00:49:00,
2013-07-25 20:54:00,71.2,67.5,29.94,SSW,194,0.0,0.0,88,0.00,,---,0.26,VWS V14.01,2013-07-26 00:54:00,
2013-07-25 20:59:00,70.9,67.2,29.94,West,260,0.0,1.0,88,0.00,,---,0.26,VWS V14.01,2013-07-26 00:59:00,
2013-07-25 21:04:00,70.5,67.1,29.94,West,260,0.0,0.0,89,0.00,,---,0.26,VWS V14.01,2013-07-26 01:04:00,
2013-07-25 21:09:00,70.2,66.8,29.95,WNW,284,0.0,1.0,89,0.00,,---,0.26,VWS V14.01,2013-07-26 01:09:00,
2013-07-25 21:14:00,69.9,66.8,29.95,WNW,284,0.0,1.0,90,0.00,,---,0.26,VWS V14.01,2013-07-26 01:14:00,
2013-07-25 21:19:00,69.7,66.6,29.95,WNW,284,0.0,1.0,90,0.00,,---,0.26,VWS V14.01,2013-07-26 01:19:00,
2013-07-25 21:24:00,69.4,66.7,29.95,WNW,284,0.0,1.0,91,0.00,,---,0.26,VWS V14.01,2013-07-26 01:24:00,
2013-07-25 21:29:00,69.1,66.4,29.95,WNW,285,0.0,1.0,91,0.00,,---,0.26,VWS V14.01,2013-07-26 01:29:00,
2013-07-25 21:34:00,68.8,66.4,29.95,WNW,285,0.0,1.0,92,0.00,,---,0.26,VWS V14.01,2013-07-26 01:34:00,
2013-07-25 21:39:00,68.5,66.1,29.96,WNW,285,0.0,1.0,92,0.00,,---,0.26,VWS V14.01,2013-07-26 01:39:00,
2013-07-25 21:44:00,68.3,66.2,29.96,West,279,0.0,2.0,93,0.00,,---,0.26,VWS V14.01,2013-07-26 01:44:00,
2013-07-25 21:49:00,68.1,66.0,29.97,WNW,284,1.0,2.0,93,0.00,,---,0.26,VWS V14.01,2013-07-26 01:49:00,
2013-07-25 21:54:00,67.9,65.8,29.97,WNW,294,0.0,2.0,93,0.00,,---,0.26,VWS V14.01,2013-07-26 01:54:00,
2013-07-25 21:59:00,67.7,65.6,29.97,WNW,294,0.0,2.0,93,0.00,,---,0.26,VWS V14.01,2013-07-26 01:59:00,
2013-07-25 22:04:00,67.6,65.8,29.98,WNW,294,0.0,0.0,94,0.00,,---,0.26,VWS V14.01,2013-07-26 02:04:00,
2013-07-25 22:09:00,67.4,65.6,29.98,WNW,294,0.0,0.0,94,0.00,,---,0.26,VWS V14.01,2013-07-26 02:09:00,
2013-07-25 22:14:00,67.4,65.6,29.98,SW,227,1.0,1.0,94,0.00,,---,0.26,VWS V14.01,2013-07-26 02:14:00,
2013-07-25 22:19:00,67.2,65.4,29.98,South,177,0.0,1.0,94,0.00,,---,0.26,VWS V14.01,2013-07-26 02:19:00,
2013-07-25 22:24:00,67.2,65.4,29.98,South,177,0.0,1.0,94,0.00,,---,0.26,VWS V14.01,2013-07-26 02:24:00,
2013-07-25 22:29:00,67.1,65.6,29.98,South,177,0.0,1.0,95,0.00,,---,0.26,VWS V14.01,2013-07-26 02:29:00,
2013-07-25 22:34:00,67.0,65.5,29.98,East,86,0.0,1.0,95,0.00,,---,0.26,VWS V14.01,2013-07-26 02:34:00,
2013-07-25 22:39:00,67.0,65.5,29.98,NE,46,0.0,1.0,95,0.00,,---,0.26,VWS V14.01,2013-07-26 02:39:00,
2013-07-25 22:44:00,66.9,65.4,29.98,NE,46,0.0,1.0,95,0.00,,---,0.26,VWS V14.01,2013-07-26 02:44:00,
2013-07-25 22:49:00,67.0,65.5,29.99,East,101,0.0,1.0,95,0.00,,---,0.26,VWS V14.01,2013-07-26 02:49:00,
2013-07-25 22:54:00,67.0,65.5,29.99,SE,131,0.0,1.0,95,0.00,,---,0.26,VWS V14.01,2013-07-26 02:54:00,
2013-07-25 22:59:00,67.0,65.5,29.99,SE,131,0.0,1.0,95,0.00,,---,0.26,VWS V14.01,2013-07-26 02:59:00,
2013-07-25 23:04:00,67.0,65.5,29.99,SSW,196,0.0,0.0,95,0.00,,---,0.26,VWS V14.01,2013-07-26 03:04:00,
2013-07-25 23:09:00,66.9,65.4,29.99,SSW,196,0.0,0.0,95,0.00,,---,0.26,VWS V14.01,2013-07-26 03:09:00,
2013-07-25 23:14:00,66.8,65.3,29.99,SSW,196,0.0,0.0,95,0.00,,---,0.26,VWS V14.01,2013-07-26 03:14:00,
2013-07-25 23:19:00,66.8,65.3,29.99,SSE,163,0.0,1.0,95,0.00,,---,0.26,VWS V14.01,2013-07-26 03:19:00,
2013-07-25 23:24:00,66.7,65.2,29.99,SSE,163,0.0,1.0,95,0.00,,---,0.26,VWS V14.01,2013-07-26 03:24:00,
2013-07-25 23:29:00,66.7,65.2,29.99,SSE,163,0.0,1.0,95,0.00,,---,0.26,VWS V14.01,2013-07-26 03:29:00,
2013-07-25 23:34:00,66.6,65.1,29.99,NW,314,1.0,2.0,95,0.00,,---,0.26,VWS V14.01,2013-07-26 03:34:00,
2013-07-25 23:39:00,66.4,64.9,30.00,NW,310,0.0,2.0,95,0.00,,---,0.26,VWS V14.01,2013-07-26 03:39:00,
2013-07-25 23:44:00,66.3,64.8,30.00,NE,48,0.0,2.0,95,0.00,,---,0.26,VWS V14.01,2013-07-26 03:44:00,
2013-07-25 23:49:00,66.3,64.8,30.00,ENE,69,0.0,2.0,95,0.00,,---,0.26,VWS V14.01,2013-07-26 03:49:00,
2013-07-25 23:54:00,66.3,65.1,30.00,ENE,68,0.0,2.0,96,0.00,,---,0.26,VWS V14.01,2013-07-26 03:54:00,
2013-07-25 23:59:00,66.2,65.0,30.00,ENE,68,0.0,2.0,96,0.00,,---,0.26,VWS V14.01,2013-07-26 03:59:00,